Time;durP1;ratioP1;P1;durP2;ratioP2;P2;SDS_P1;SDS_P2;PMS_P1;PMS_P2;Temp;Humidity;BMP_temperature;BMP_pressure;BME280_temperature;BME280_humidity;BME280_pressure;Samples;Min_cycle;Max_cycle;Signal;HPM_P1;HPM_P2
2022/09/16 00:01:42;;;;;;;0.20;0.10;;;;;;;;;;4145842;28;20054;-51
2022/09/16 00:03:44;;;;;;;0.70;0.28;;;;;;;;;;4146426;28;20061;-50
2022/09/16 00:05:47;;;;;;;0.20;0.10;;;;;;;;;;4146972;28;20050;-52
2022/09/16 00:07:49;;;;;;;0.10;0.00;;;;;;;;;;4146910;28;20108;-49
2022/09/16 00:09:50;;;;;;;0.20;0.20;;;;;;;;;;4145820;28;20058;-51
2022/09/16 00:11:51;;;;;;;0.43;0.10;;;;;;;;;;4145757;28;20139;-48
2022/09/16 00:13:52;;;;;;;0.22;0.10;;;;;;;;;;4146635;28;20096;-48
2022/09/16 00:15:54;;;;;;;0.38;0.13;;;;;;;;;;4146830;28;20053;-50
2022/09/16 00:17:55;;;;;;;0.20;0.10;;;;;;;;;;4146614;28;20501;-48
2022/09/16 00:19:57;;;;;;;0.20;0.10;;;;;;;;;;4146831;28;20053;-51
2022/09/16 00:21:58;;;;;;;0.30;0.10;;;;;;;;;;4146782;28;20078;-52
2022/09/16 00:23:59;;;;;;;0.57;0.13;;;;;;;;;;4147080;28;20058;-50
2022/09/16 00:26:00;;;;;;;0.20;0.10;;;;;;;;;;4146782;28;20076;-50
2022/09/16 00:28:01;;;;;;;0.30;0.17;;;;;;;;;;4146949;28;20098;-51
2022/09/16 00:30:03;;;;;;;0.30;0.10;;;;;;;;;;4146852;28;20549;-50
2022/09/16 00:32:04;;;;;;;0.10;0.10;;;;;;;;;;4145434;28;20062;-50
2022/09/16 00:34:05;;;;;;;0.17;0.10;;;;;;;;;;4146345;28;20049;-48
2022/09/16 00:36:12;;;;;;;0.38;0.10;;;;;;;;;;4147032;28;20050;-51
2022/09/16 00:38:13;;;;;;;0.10;0.10;;;;;;;;;;4146483;28;20065;-48
2022/09/16 00:40:15;;;;;;;0.73;0.10;;;;;;;;;;4146774;28;20115;-50
2022/09/16 00:42:17;;;;;;;0.10;0.10;;;;;;;;;;4146696;28;20458;-52
2022/09/16 00:44:54;;;;;;;0.22;0.10;;;;;;;;;;4146651;28;20050;-51
2022/09/16 00:46:55;;;;;;;0.10;0.10;;;;;;;;;;4146860;28;20050;-51
2022/09/16 00:48:59;;;;;;;0.82;0.25;;;;;;;;;;4145082;28;20057;-48
2022/09/16 00:51:05;;;;;;;0.50;0.20;;;;;;;;;;4145255;28;20119;-49
2022/09/16 00:53:08;;;;;;;0.20;0.10;;;;;;;;;;4145307;28;20061;-49
2022/09/16 00:55:13;;;;;;;0.08;0.08;;;;;;;;;;4146947;28;20097;-53
2022/09/16 00:57:14;;;;;;;0.65;0.10;;;;;;;;;;4145383;28;20104;-50
2022/09/16 00:59:19;;;;;;;0.22;0.10;;;;;;;;;;4145656;28;20061;-50
2022/09/16 01:01:21;;;;;;;0.17;0.10;;;;;;;;;;4146449;28;20053;-49
2022/09/16 01:03:22;;;;;;;0.10;0.10;;;;;;;;;;4146048;28;20058;-52
2022/09/16 01:05:25;;;;;;;0.10;0.10;;;;;;;;;;4146442;28;20057;-52
2022/09/16 01:07:38;;;;;;;0.20;0.08;;;;;;;;;;4146293;28;20556;-51
2022/09/16 01:09:40;;;;;;;0.80;0.10;;;;;;;;;;4145744;28;20517;-53
2022/09/16 01:11:41;;;;;;;0.30;0.10;;;;;;;;;;4149335;28;20414;-49
2022/09/16 01:13:43;;;;;;;0.22;0.10;;;;;;;;;;4149609;28;20108;-50
2022/09/16 01:16:00;;;;;;;0.10;0.10;;;;;;;;;;4149259;28;20065;-49
2022/09/16 01:18:01;;;;;;;0.25;0.20;;;;;;;;;;4147782;28;20054;-53
2022/09/16 01:20:03;;;;;;;0.10;0.05;;;;;;;;;;4149310;28;20516;-49
2022/09/16 01:22:49;;;;;;;0.10;0.10;;;;;;;;;;4149236;28;20486;-50
2022/09/16 01:25:25;;;;;;;0.17;0.10;;;;;;;;;;4148082;28;20057;-49
2022/09/16 01:27:44;;;;;;;0.40;0.20;;;;;;;;;;4148754;28;20061;-50
2022/09/16 01:29:56;;;;;;;0.20;0.10;;;;;;;;;;4148227;28;20111;-50
2022/09/16 01:32:09;;;;;;;0.20;0.20;;;;;;;;;;4147947;28;20061;-53
2022/09/16 01:34:18;;;;;;;0.20;0.13;;;;;;;;;;4131629;28;20089;-50
2022/09/16 01:36:19;;;;;;;0.65;0.30;;;;;;;;;;4149141;28;20053;-51
2022/09/16 01:38:49;;;;;;;0.20;0.20;;;;;;;;;;4148925;28;20133;-50
2022/09/16 01:40:58;;;;;;;0.10;0.10;;;;;;;;;;4147968;28;20058;-52
2022/09/16 01:43:24;;;;;;;0.10;0.10;;;;;;;;;;4147423;28;20100;-51
2022/09/16 01:45:38;;;;;;;0.73;0.30;;;;;;;;;;4131544;28;20054;-49
2022/09/16 01:47:57;;;;;;;0.20;0.10;;;;;;;;;;4130849;28;20061;-49
2022/09/16 01:50:08;;;;;;;0.30;0.13;;;;;;;;;;4131326;28;20058;-51
2022/09/16 01:52:19;;;;;;;0.10;0.10;;;;;;;;;;4132458;28;20058;-51
2022/09/16 01:54:31;;;;;;;0.17;0.10;;;;;;;;;;4147501;28;20054;-50
2022/09/16 01:56:41;;;;;;;0.10;0.10;;;;;;;;;;4144871;28;20054;-48
2022/09/16 01:58:54;;;;;;;0.10;0.10;;;;;;;;;;4135188;28;20069;-51
2022/09/16 02:01:00;;;;;;;0.10;0.10;;;;;;;;;;4145882;28;20056;-51
2022/09/16 02:03:07;;;;;;;0.10;0.10;;;;;;;;;;4147354;28;20386;-51
2022/09/16 02:05:16;;;;;;;0.10;0.10;;;;;;;;;;4146164;28;20058;-50
2022/09/16 02:07:20;;;;;;;0.52;0.10;;;;;;;;;;4148617;28;20065;-50
2022/09/16 02:09:26;;;;;;;0.55;0.10;;;;;;;;;;4148587;28;20077;-48
2022/09/16 02:11:28;;;;;;;0.20;0.05;;;;;;;;;;4147483;28;20474;-50
2022/09/16 02:13:33;;;;;;;0.03;0.03;;;;;;;;;;4145430;28;20046;-51
2022/09/16 02:15:36;;;;;;;0.13;0.10;;;;;;;;;;4132954;28;20235;-48
2022/09/16 02:17:42;;;;;;;0.30;0.10;;;;;;;;;;4130569;28;20058;-51
2022/09/16 02:19:48;;;;;;;0.40;0.17;;;;;;;;;;4147299;28;20563;-51
2022/09/16 02:21:51;;;;;;;0.08;0.08;;;;;;;;;;4130162;28;20477;-52
2022/09/16 02:23:56;;;;;;;0.30;0.10;;;;;;;;;;4132608;28;20058;-51
2022/09/16 02:25:59;;;;;;;0.32;0.15;;;;;;;;;;4131200;28;20054;-49
2022/09/16 02:28:01;;;;;;;0.10;0.10;;;;;;;;;;4130736;28;20529;-52
2022/09/16 02:30:08;;;;;;;0.10;0.10;;;;;;;;;;4115117;28;20094;-49
2022/09/16 02:32:11;;;;;;;0.38;0.15;;;;;;;;;;4131669;28;20198;-49
2022/09/16 02:34:15;;;;;;;0.10;0.10;;;;;;;;;;4131064;28;20054;-49
2022/09/16 02:36:20;;;;;;;0.30;0.10;;;;;;;;;;4147000;28;20054;-50
2022/09/16 02:38:28;;;;;;;0.10;0.10;;;;;;;;;;4130643;28;20054;-49
2022/09/16 02:40:50;;;;;;;1.05;0.25;;;;;;;;;;4130835;28;20073;-50
2022/09/16 02:42:51;;;;;;;0.22;0.10;;;;;;;;;;4130918;28;20097;-49
2022/09/16 02:44:53;;;;;;;0.10;0.10;;;;;;;;;;4137168;28;20050;-49
2022/09/16 02:47:10;;;;;;;0.17;0.10;;;;;;;;;;4131962;28;20101;-48
2022/09/16 02:49:27;;;;;;;0.30;0.10;;;;;;;;;;4131200;28;20066;-51
2022/09/16 02:51:42;;;;;;;0.50;0.15;;;;;;;;;;4162906;28;20138;-52
2022/09/16 02:53:49;;;;;;;0.40;0.10;;;;;;;;;;4148049;28;20494;-49
2022/09/16 02:55:57;;;;;;;0.20;0.00;;;;;;;;;;4146901;28;20046;-49
2022/09/16 02:57:58;;;;;;;0.32;0.10;;;;;;;;;;4146501;28;20485;-49
2022/09/16 02:59:59;;;;;;;0.20;0.10;;;;;;;;;;4146709;28;20058;-48
2022/09/16 03:02:01;;;;;;;0.20;0.10;;;;;;;;;;4147749;28;20072;-49
2022/09/16 03:04:03;;;;;;;0.30;0.10;;;;;;;;;;4147206;28;20454;-49
2022/09/16 03:06:20;;;;;;;0.20;0.10;;;;;;;;;;4130627;28;20058;-48
2022/09/16 03:08:21;;;;;;;0.20;0.10;;;;;;;;;;4145813;28;20057;-51
2022/09/16 03:10:40;;;;;;;0.10;0.10;;;;;;;;;;4146929;28;20061;-52
2022/09/16 03:12:52;;;;;;;0.30;0.10;;;;;;;;;;4146410;28;20057;-51
2022/09/16 03:15:05;;;;;;;0.20;0.10;;;;;;;;;;4147692;28;20054;-48
2022/09/16 03:17:34;;;;;;;0.10;0.00;;;;;;;;;;4147325;28;20112;-52
2022/09/16 03:19:47;;;;;;;0.20;0.10;;;;;;;;;;4147703;28;20088;-53
2022/09/16 03:21:57;;;;;;;0.30;0.10;;;;;;;;;;4147721;28;20053;-49
2022/09/16 03:24:11;;;;;;;0.10;0.03;;;;;;;;;;4147822;28;20066;-48
2022/09/16 03:26:19;;;;;;;0.20;0.10;;;;;;;;;;4147345;28;20072;-50
2022/09/16 03:28:39;;;;;;;0.10;0.10;;;;;;;;;;4146039;28;20053;-48
2022/09/16 03:31:03;;;;;;;0.38;0.20;;;;;;;;;;4147499;28;20457;-47
2022/09/16 03:33:15;;;;;;;0.10;0.00;;;;;;;;;;4145314;28;20581;-49
2022/09/16 03:35:18;;;;;;;0.13;0.10;;;;;;;;;;4145917;28;20493;-48
2022/09/16 03:37:20;;;;;;;0.10;0.10;;;;;;;;;;4145982;28;20096;-50
2022/09/16 03:39:21;;;;;;;0.10;0.10;;;;;;;;;;4147527;28;20053;-50
2022/09/16 03:41:23;;;;;;;0.10;0.10;;;;;;;;;;4146970;28;20054;-47
2022/09/16 03:43:24;;;;;;;0.08;0.08;;;;;;;;;;4130036;28;20108;-48
2022/09/16 03:45:25;;;;;;;0.20;0.10;;;;;;;;;;4147221;28;20461;-48
2022/09/16 03:47:26;;;;;;;0.20;0.10;;;;;;;;;;4146437;28;20062;-48
2022/09/16 03:49:29;;;;;;;0.10;0.10;;;;;;;;;;4146247;28;20054;-48
2022/09/16 03:51:30;;;;;;;0.20;0.20;;;;;;;;;;4147262;28;20053;-48
2022/09/16 03:53:31;;;;;;;0.00;0.00;;;;;;;;;;4146945;28;20505;-48
2022/09/16 03:55:33;;;;;;;0.00;0.00;;;;;;;;;;4146939;28;20085;-48
2022/09/16 03:57:34;;;;;;;0.10;0.10;;;;;;;;;;4147045;28;20469;-48
2022/09/16 03:59:35;;;;;;;0.10;0.10;;;;;;;;;;4147060;28;20108;-49
2022/09/16 04:01:36;;;;;;;0.10;0.10;;;;;;;;;;4147505;28;20054;-48
2022/09/16 04:03:37;;;;;;;0.20;0.10;;;;;;;;;;4146560;28;20060;-48
2022/09/16 04:05:39;;;;;;;0.10;0.10;;;;;;;;;;4146883;28;20053;-48
2022/09/16 04:07:40;;;;;;;0.10;0.10;;;;;;;;;;4147118;28;20053;-49
2022/09/16 04:09:41;;;;;;;0.10;0.10;;;;;;;;;;4146875;28;20447;-48
2022/09/16 04:11:42;;;;;;;0.20;0.20;;;;;;;;;;4146308;28;20096;-50
2022/09/16 04:13:44;;;;;;;0.10;0.03;;;;;;;;;;4146961;28;20069;-48
2022/09/16 04:15:45;;;;;;;0.38;0.10;;;;;;;;;;4145663;28;20050;-47
2022/09/16 04:17:46;;;;;;;0.05;0.00;;;;;;;;;;4145396;28;20100;-47
2022/09/16 04:19:47;;;;;;;0.22;0.08;;;;;;;;;;4147187;28;20058;-48
2022/09/16 04:21:48;;;;;;;0.25;0.10;;;;;;;;;;4146923;28;20104;-48
2022/09/16 04:23:49;;;;;;;0.20;0.10;;;;;;;;;;4146930;28;20108;-47
2022/09/16 04:25:58;;;;;;;0.20;0.10;;;;;;;;;;4145534;28;20058;-48
2022/09/16 04:27:59;;;;;;;0.20;0.10;;;;;;;;;;4130468;28;20058;-49
2022/09/16 04:30:00;;;;;;;0.20;0.00;;;;;;;;;;4130629;28;20104;-51
2022/09/16 04:32:02;;;;;;;1.10;0.10;;;;;;;;;;4130417;28;20154;-47
2022/09/16 04:34:04;;;;;;;0.30;0.10;;;;;;;;;;4129854;28;20368;-49
2022/09/16 04:36:08;;;;;;;0.10;0.10;;;;;;;;;;4130346;28;20050;-47
2022/09/16 04:38:09;;;;;;;0.30;0.10;;;;;;;;;;4128846;28;20134;-48
2022/09/16 04:40:10;;;;;;;0.15;0.10;;;;;;;;;;4130379;28;20097;-50
2022/09/16 04:42:11;;;;;;;0.15;0.10;;;;;;;;;;4130047;28;20120;-48
2022/09/16 04:44:14;;;;;;;0.17;0.10;;;;;;;;;;4130781;28;20104;-49
2022/09/16 04:46:15;;;;;;;0.10;0.10;;;;;;;;;;4131966;28;20098;-48
2022/09/16 04:48:16;;;;;;;0.10;0.10;;;;;;;;;;4132936;28;20469;-49
2022/09/16 04:50:18;;;;;;;0.10;0.10;;;;;;;;;;4139975;28;20115;-48
2022/09/16 04:52:19;;;;;;;0.10;0.10;;;;;;;;;;4148007;28;20409;-48
2022/09/16 04:54:20;;;;;;;0.38;0.10;;;;;;;;;;4148247;28;20077;-48
2022/09/16 04:56:27;;;;;;;0.22;0.10;;;;;;;;;;4148306;28;20175;-50
2022/09/16 04:58:28;;;;;;;0.10;0.10;;;;;;;;;;4149265;28;20108;-49
2022/09/16 05:00:29;;;;;;;0.55;0.10;;;;;;;;;;4145112;28;20501;-48
2022/09/16 05:02:31;;;;;;;0.20;0.10;;;;;;;;;;4130723;28;20058;-49
2022/09/16 05:04:32;;;;;;;0.10;0.10;;;;;;;;;;4145681;28;20489;-51
2022/09/16 05:06:35;;;;;;;0.20;0.20;;;;;;;;;;4131183;28;20478;-47
2022/09/16 05:08:37;;;;;;;0.20;0.10;;;;;;;;;;4131082;28;20065;-48
2022/09/16 05:10:38;;;;;;;0.13;0.13;;;;;;;;;;4130896;28;20100;-48
2022/09/16 05:12:39;;;;;;;0.30;0.10;;;;;;;;;;4130886;28;20062;-50
2022/09/16 05:14:40;;;;;;;0.22;0.13;;;;;;;;;;4131931;28;20438;-52
2022/09/16 05:16:42;;;;;;;0.28;0.20;;;;;;;;;;4145522;28;20417;-50
2022/09/16 05:18:45;;;;;;;0.10;0.10;;;;;;;;;;4142219;28;20111;-49
2022/09/16 05:20:46;;;;;;;0.10;0.10;;;;;;;;;;4151636;28;20054;-49
2022/09/16 05:22:49;;;;;;;0.20;0.20;;;;;;;;;;4139565;28;20414;-50
2022/09/16 05:24:50;;;;;;;0.20;0.10;;;;;;;;;;4137215;28;20054;-51
2022/09/16 05:26:52;;;;;;;0.28;0.28;;;;;;;;;;4144063;28;20228;-50
2022/09/16 05:28:53;;;;;;;0.20;0.20;;;;;;;;;;4140256;28;20100;-47
2022/09/16 05:30:55;;;;;;;0.10;0.10;;;;;;;;;;4140186;28;20674;-49
2022/09/16 05:32:56;;;;;;;0.40;0.20;;;;;;;;;;4141210;28;20045;-52
2022/09/16 05:34:57;;;;;;;0.35;0.20;;;;;;;;;;4142894;28;20521;-50
2022/09/16 05:36:59;;;;;;;0.30;0.20;;;;;;;;;;4143253;28;20057;-52
2022/09/16 05:39:01;;;;;;;0.20;0.20;;;;;;;;;;4141995;28;20119;-49
2022/09/16 05:41:03;;;;;;;0.68;0.20;;;;;;;;;;4144741;28;20080;-52
2022/09/16 05:43:04;;;;;;;0.22;0.20;;;;;;;;;;4149150;28;20057;-50
2022/09/16 05:45:06;;;;;;;0.20;0.20;;;;;;;;;;4141796;28;20520;-49
2022/09/16 05:47:07;;;;;;;0.10;0.10;;;;;;;;;;4144925;28;20140;-48
2022/09/16 05:49:09;;;;;;;0.10;0.10;;;;;;;;;;4144411;28;20050;-50
2022/09/16 05:51:13;;;;;;;0.35;0.32;;;;;;;;;;4142729;28;20050;-48
2022/09/16 05:53:14;;;;;;;0.08;0.08;;;;;;;;;;4146349;28;20097;-48
2022/09/16 05:55:15;;;;;;;0.10;0.10;;;;;;;;;;4140420;28;20337;-51
2022/09/16 05:57:16;;;;;;;0.60;0.10;;;;;;;;;;4138343;28;20057;-47
2022/09/16 05:59:17;;;;;;;0.10;0.10;;;;;;;;;;4140980;28;20050;-48
2022/09/16 06:01:20;;;;;;;0.22;0.20;;;;;;;;;;4134883;28;20104;-48
2022/09/16 06:03:21;;;;;;;0.40;0.17;;;;;;;;;;4133277;28;20155;-49
2022/09/16 06:05:23;;;;;;;0.30;0.20;;;;;;;;;;4141477;28;20430;-48
2022/09/16 06:07:24;;;;;;;0.10;0.10;;;;;;;;;;4139971;28;20057;-49
2022/09/16 06:09:28;;;;;;;0.38;0.10;;;;;;;;;;4141757;28;20555;-49
2022/09/16 06:11:29;;;;;;;0.20;0.20;;;;;;;;;;4143399;28;20104;-49
2022/09/16 06:13:31;;;;;;;0.28;0.10;;;;;;;;;;4139748;28;20064;-51
2022/09/16 06:15:32;;;;;;;0.38;0.22;;;;;;;;;;4141673;28;20127;-48
2022/09/16 06:17:33;;;;;;;0.10;0.10;;;;;;;;;;4140118;28;20057;-49
2022/09/16 06:19:34;;;;;;;1.02;0.30;;;;;;;;;;4144841;28;20058;-51
2022/09/16 06:21:36;;;;;;;0.20;0.20;;;;;;;;;;4142369;28;20050;-50
2022/09/16 06:23:38;;;;;;;0.10;0.10;;;;;;;;;;4141775;28;20115;-50
2022/09/16 06:25:40;;;;;;;0.50;0.20;;;;;;;;;;4143801;28;20057;-51
2022/09/16 06:27:41;;;;;;;0.13;0.13;;;;;;;;;;4145421;28;20475;-49
2022/09/16 06:29:42;;;;;;;0.10;0.10;;;;;;;;;;4142515;28;20058;-49
2022/09/16 06:31:43;;;;;;;0.10;0.10;;;;;;;;;;4141105;28;20053;-48
2022/09/16 06:33:45;;;;;;;0.90;0.30;;;;;;;;;;4142899;28;20508;-48
2022/09/16 06:35:46;;;;;;;0.20;0.20;;;;;;;;;;4142866;28;20543;-50
2022/09/16 06:37:47;;;;;;;0.10;0.10;;;;;;;;;;4140788;28;20049;-46
2022/09/16 06:39:49;;;;;;;0.30;0.13;;;;;;;;;;4134961;28;20133;-46
2022/09/16 06:41:50;;;;;;;0.77;0.20;;;;;;;;;;4135782;28;20100;-49
2022/09/16 06:43:52;;;;;;;0.98;0.15;;;;;;;;;;4138934;28;20045;-50
2022/09/16 06:46:01;;;;;;;0.47;0.20;;;;;;;;;;4138295;28;20568;-46
2022/09/16 06:48:02;;;;;;;0.70;0.20;;;;;;;;;;4140346;28;20057;-50
2022/09/16 06:50:04;;;;;;;0.30;0.10;;;;;;;;;;4135468;28;20053;-50
2022/09/16 06:52:07;;;;;;;0.20;0.15;;;;;;;;;;4142526;28;20928;-46
2022/09/16 06:54:08;;;;;;;0.65;0.25;;;;;;;;;;4144131;28;20049;-49
2022/09/16 06:56:12;;;;;;;0.32;0.10;;;;;;;;;;4141665;28;20397;-48
2022/09/16 06:58:13;;;;;;;0.82;0.20;;;;;;;;;;4139479;28;20053;-48
2022/09/16 07:00:15;;;;;;;0.30;0.15;;;;;;;;;;4132338;28;20108;-50
2022/09/16 07:02:16;;;;;;;0.63;0.17;;;;;;;;;;4125045;28;20068;-49
2022/09/16 07:04:18;;;;;;;0.10;0.10;;;;;;;;;;4130718;28;20066;-47
2022/09/16 07:06:21;;;;;;;0.15;0.10;;;;;;;;;;4136637;28;20417;-51
2022/09/16 07:08:22;;;;;;;0.00;0.00;;;;;;;;;;4132401;28;20120;-49
2022/09/16 07:10:24;;;;;;;0.65;0.20;;;;;;;;;;4132240;28;20061;-47
2022/09/16 07:12:27;;;;;;;0.32;0.25;;;;;;;;;;4133290;28;20579;-50
2022/09/16 07:14:28;;;;;;;0.10;0.10;;;;;;;;;;4139378;28;20061;-46
2022/09/16 07:16:29;;;;;;;0.00;0.00;;;;;;;;;;4136972;28;20413;-46
2022/09/16 07:18:31;;;;;;;0.10;0.10;;;;;;;;;;4135438;28;20073;-49
2022/09/16 07:20:33;;;;;;;0.32;0.10;;;;;;;;;;4140699;28;20057;-51
2022/09/16 07:22:34;;;;;;;0.52;0.10;;;;;;;;;;4137745;28;20671;-48
2022/09/16 07:24:36;;;;;;;0.10;0.10;;;;;;;;;;4140906;28;20509;-49
2022/09/16 07:26:38;;;;;;;0.30;0.20;;;;;;;;;;4140134;28;20156;-48
2022/09/16 07:28:40;;;;;;;0.10;0.10;;;;;;;;;;4132158;28;20475;-49
2022/09/16 07:30:42;;;;;;;0.65;0.20;;;;;;;;;;4136373;28;20421;-48
2022/09/16 07:32:43;;;;;;;0.20;0.20;;;;;;;;;;4140059;28;20099;-48
2022/09/16 07:34:44;;;;;;;2.08;0.15;;;;;;;;;;4133915;28;20053;-48
2022/09/16 07:36:47;;;;;;;0.20;0.20;;;;;;;;;;4133910;28;20124;-48
2022/09/16 07:38:49;;;;;;;1.55;0.10;;;;;;;;;;4140743;28;20124;-48
2022/09/16 07:40:50;;;;;;;0.73;0.20;;;;;;;;;;4138462;28;20104;-50
2022/09/16 07:42:51;;;;;;;0.20;0.20;;;;;;;;;;4136630;28;20050;-48
2022/09/16 07:44:52;;;;;;;0.13;0.10;;;;;;;;;;4138811;28;20053;-48
2022/09/16 07:46:54;;;;;;;0.40;0.30;;;;;;;;;;4138572;28;20064;-50
2022/09/16 07:48:57;;;;;;;0.45;0.20;;;;;;;;;;4140220;28;20561;-50
2022/09/16 07:51:00;;;;;;;0.45;0.20;;;;;;;;;;4137602;28;20060;-51
2022/09/16 07:53:02;;;;;;;0.25;0.10;;;;;;;;;;4136614;28;20754;-49
2022/09/16 07:55:04;;;;;;;0.20;0.20;;;;;;;;;;4137652;28;20116;-49
2022/09/16 07:57:05;;;;;;;0.20;0.20;;;;;;;;;;4140025;28;20061;-47
2022/09/16 07:59:14;;;;;;;0.13;0.13;;;;;;;;;;4130528;28;20089;-47
2022/09/16 08:01:16;;;;;;;0.20;0.20;;;;;;;;;;4118771;28;20061;-49
2022/09/16 08:03:17;;;;;;;0.30;0.20;;;;;;;;;;4131726;28;20897;-50
2022/09/16 08:05:18;;;;;;;0.28;0.10;;;;;;;;;;4127307;28;20105;-50
2022/09/16 08:07:19;;;;;;;0.52;0.25;;;;;;;;;;4133813;28;20061;-47
2022/09/16 08:09:21;;;;;;;0.47;0.25;;;;;;;;;;4129912;28;20120;-50
2022/09/16 08:11:23;;;;;;;0.17;0.15;;;;;;;;;;4136352;28;20056;-47
2022/09/16 08:13:24;;;;;;;1.95;0.20;;;;;;;;;;4128827;28;20107;-48
2022/09/16 08:15:26;;;;;;;0.20;0.10;;;;;;;;;;4127880;28;20050;-47
2022/09/16 08:17:28;;;;;;;0.10;0.10;;;;;;;;;;4133698;28;20109;-47
2022/09/16 08:19:29;;;;;;;1.00;0.20;;;;;;;;;;4133196;28;22302;-46
2022/09/16 08:21:30;;;;;;;0.20;0.20;;;;;;;;;;4136643;28;20124;-47
2022/09/16 08:23:31;;;;;;;0.20;0.20;;;;;;;;;;4139317;28;20386;-47
2022/09/16 08:25:33;;;;;;;0.10;0.10;;;;;;;;;;4141905;28;20116;-47
2022/09/16 08:27:34;;;;;;;0.30;0.20;;;;;;;;;;4141772;28;20058;-47
2022/09/16 08:29:36;;;;;;;0.45;0.20;;;;;;;;;;4133914;28;20128;-50
2022/09/16 08:31:37;;;;;;;0.10;0.10;;;;;;;;;;4137036;28;20132;-51
2022/09/16 08:33:39;;;;;;;0.50;0.30;;;;;;;;;;4141715;28;20061;-50
2022/09/16 08:35:40;;;;;;;0.20;0.20;;;;;;;;;;4140942;28;20093;-48
2022/09/16 08:37:41;;;;;;;0.38;0.20;;;;;;;;;;4133156;28;20068;-49
2022/09/16 08:39:43;;;;;;;0.68;0.20;;;;;;;;;;4140745;28;20374;-49
2022/09/16 08:41:54;;;;;;;0.32;0.22;;;;;;;;;;4140988;28;20062;-48
2022/09/16 08:44:16;;;;;;;0.25;0.20;;;;;;;;;;4136998;28;20053;-50
2022/09/16 08:46:22;;;;;;;0.20;0.20;;;;;;;;;;4140734;28;20841;-48
2022/09/16 08:48:29;;;;;;;0.25;0.10;;;;;;;;;;4138747;28;20442;-48
2022/09/16 08:50:36;;;;;;;0.40;0.30;;;;;;;;;;4135018;28;20118;-47
2022/09/16 08:52:39;;;;;;;0.10;0.10;;;;;;;;;;4155457;28;20086;-47
2022/09/16 08:54:47;;;;;;;0.73;0.30;;;;;;;;;;4138010;28;20393;-48
2022/09/16 08:56:49;;;;;;;0.20;0.20;;;;;;;;;;4136232;28;20080;-45
2022/09/16 08:58:54;;;;;;;0.20;0.20;;;;;;;;;;4138231;28;20058;-48
2022/09/16 09:00:59;;;;;;;0.20;0.20;;;;;;;;;;4122474;28;20168;-48
2022/09/16 09:03:30;;;;;;;0.70;0.25;;;;;;;;;;4134067;28;20062;-49
2022/09/16 09:05:53;;;;;;;0.20;0.20;;;;;;;;;;4137230;28;20135;-48
2022/09/16 09:08:36;;;;;;;0.50;0.20;;;;;;;;;;4135872;28;20053;-49
2022/09/16 09:11:01;;;;;;;0.25;0.25;;;;;;;;;;4138880;28;20068;-49
2022/09/16 09:13:19;;;;;;;0.20;0.13;;;;;;;;;;4137197;28;20045;-47
2022/09/16 09:15:40;;;;;;;0.40;0.30;;;;;;;;;;4138116;28;20108;-48
2022/09/16 09:18:06;;;;;;;0.10;0.10;;;;;;;;;;4133449;28;20743;-46
2022/09/16 09:20:30;;;;;;;0.77;0.50;;;;;;;;;;4139491;28;20058;-48
2022/09/16 09:22:55;;;;;;;0.20;0.20;;;;;;;;;;4140434;28;20425;-48
2022/09/16 09:25:05;;;;;;;0.38;0.20;;;;;;;;;;4138378;28;20128;-47
2022/09/16 09:27:12;;;;;;;;;;;;;;;;;;4136426;28;20191;-47
2022/09/16 09:29:22;;;;;;;0.65;0.20;;;;;;;;;;4139683;28;19936;-48
2022/09/16 09:32:01;;;;;;;1.67;0.10;;;;;;;;;;4138957;28;20519;-45
2022/09/16 09:34:05;;;;;;;0.10;0.10;;;;;;;;;;4137716;28;20054;-48
2022/09/16 09:36:28;;;;;;;0.63;0.20;;;;;;;;;;4134872;28;20100;-46
2022/09/16 09:38:40;;;;;;;0.20;0.20;;;;;;;;;;4139111;28;20520;-46
2022/09/16 09:40:47;;;;;;;0.45;0.10;;;;;;;;;;4136396;28;20062;-51
2022/09/16 09:42:52;;;;;;;0.10;0.10;;;;;;;;;;4135796;28;20058;-47
2022/09/16 09:45:02;;;;;;;1.95;0.10;;;;;;;;;;4137895;28;20058;-49
2022/09/16 09:47:10;;;;;;;0.10;0.10;;;;;;;;;;4137225;28;20061;-49
2022/09/16 09:49:15;;;;;;;0.10;0.10;;;;;;;;;;4135700;28;20180;-49
2022/09/16 09:51:51;;;;;;;0.10;0.10;;;;;;;;;;4154398;28;20099;-52
2022/09/16 09:53:58;;;;;;;0.28;0.20;;;;;;;;;;4137992;28;20559;-47
2022/09/16 09:56:35;;;;;;;0.20;0.20;;;;;;;;;;4142341;28;20092;-52
2022/09/16 09:59:28;;;;;;;0.40;0.20;;;;;;;;;;4143735;28;20054;-50
2022/09/16 10:01:29;;;;;;;0.20;0.20;;;;;;;;;;4119807;28;20058;-49
2022/09/16 10:03:31;;;;;;;0.30;0.10;;;;;;;;;;4140298;28;20092;-52
2022/09/16 10:05:32;;;;;;;0.40;0.10;;;;;;;;;;4141998;28;20521;-52
2022/09/16 10:07:36;;;;;;;0.55;0.10;;;;;;;;;;4143275;28;20411;-50
2022/09/16 10:09:46;;;;;;;0.35;0.10;;;;;;;;;;4139037;28;20504;-52
2022/09/16 10:11:54;;;;;;;0.38;0.20;;;;;;;;;;4138218;28;20064;-53
2022/09/16 10:14:01;;;;;;;0.13;0.13;;;;;;;;;;4140541;28;20482;-49
2022/09/16 10:16:19;;;;;;;0.20;0.20;;;;;;;;;;4130330;28;20152;-49
2022/09/16 10:18:24;;;;;;;0.20;0.10;;;;;;;;;;4140422;28;20065;-51
2022/09/16 10:20:31;;;;;;;0.28;0.20;;;;;;;;;;4128556;28;20058;-51
2022/09/16 10:22:34;;;;;;;0.35;0.10;;;;;;;;;;4140268;28;20536;-51
2022/09/16 10:24:39;;;;;;;0.38;0.20;;;;;;;;;;4136812;28;20116;-49
2022/09/16 10:26:41;;;;;;;0.10;0.10;;;;;;;;;;4142549;28;20391;-50
2022/09/16 10:28:54;;;;;;;0.10;0.10;;;;;;;;;;4135088;28;20085;-52
2022/09/16 10:30:57;;;;;;;0.57;0.30;;;;;;;;;;4140108;28;20049;-52
2022/09/16 10:33:02;;;;;;;0.22;0.22;;;;;;;;;;4135797;28;20065;-51
2022/09/16 10:35:07;;;;;;;0.10;0.10;;;;;;;;;;4137309;28;20528;-52
2022/09/16 10:37:11;;;;;;;0.10;0.10;;;;;;;;;;4141341;28;20065;-50
2022/09/16 10:39:23;;;;;;;1.35;0.10;;;;;;;;;;4141321;28;20060;-50
2022/09/16 10:41:32;;;;;;;0.47;0.20;;;;;;;;;;4140570;28;20073;-47
2022/09/16 10:43:36;;;;;;;0.70;0.20;;;;;;;;;;4134875;28;20496;-49
2022/09/16 10:45:44;;;;;;;0.20;0.10;;;;;;;;;;4140000;28;20080;-52
2022/09/16 10:47:49;;;;;;;0.40;0.20;;;;;;;;;;4137493;28;20058;-49
2022/09/16 10:49:52;;;;;;;0.10;0.10;;;;;;;;;;4136410;28;20081;-48
2022/09/16 10:51:54;;;;;;;0.13;0.13;;;;;;;;;;4123475;28;20061;-49
2022/09/16 10:54:00;;;;;;;0.30;0.20;;;;;;;;;;4137979;28;20046;-50
2022/09/16 10:56:05;;;;;;;0.20;0.20;;;;;;;;;;4140967;28;21248;-54
2022/09/16 10:58:17;;;;;;;0.20;0.20;;;;;;;;;;4135512;28;20084;-52
2022/09/16 11:00:24;;;;;;;0.22;0.20;;;;;;;;;;4137963;28;20041;-49
2022/09/16 11:02:28;;;;;;;0.43;0.20;;;;;;;;;;4137893;28;20065;-51
2022/09/16 11:04:42;;;;;;;0.32;0.15;;;;;;;;;;4200611;27;20652;-48
2022/09/16 11:07:14;;;;;;;0.10;0.10;;;;;;;;;;4185348;28;20685;-49
2022/09/16 11:09:23;;;;;;;0.22;0.17;;;;;;;;;;4185740;28;20106;-48
2022/09/16 11:11:27;;;;;;;0.20;0.20;;;;;;;;;;4182750;28;20052;-50
2022/09/16 11:13:51;;;;;;;0.10;0.10;;;;;;;;;;4184308;28;20053;-50
2022/09/16 11:16:24;;;;;;;0.20;0.20;;;;;;;;;;4183078;28;20537;-49
2022/09/16 11:18:37;;;;;;;0.82;0.20;;;;;;;;;;4177705;28;20087;-51
2022/09/16 11:20:54;;;;;;;0.30;0.20;;;;;;;;;;4176506;28;20080;-54
2022/09/16 11:23:22;;;;;;;2.10;0.20;;;;;;;;;;4182252;28;20071;-49
2022/09/16 11:25:59;;;;;;;0.10;0.10;;;;;;;;;;4175924;28;20519;-46
2022/09/16 11:28:27;;;;;;;0.43;0.20;;;;;;;;;;4181395;28;20060;-47
2022/09/16 11:30:31;;;;;;;0.13;0.10;;;;;;;;;;4173491;28;20461;-47
2022/09/16 11:32:58;;;;;;;0.43;0.10;;;;;;;;;;4178234;28;20061;-47
2022/09/16 11:35:41;;;;;;;0.28;0.10;;;;;;;;;;4179445;28;20056;-49
2022/09/16 11:37:50;;;;;;;0.57;0.10;;;;;;;;;;4182109;28;20704;-49
2022/09/16 11:40:05;;;;;;;1.13;0.20;;;;;;;;;;4183140;28;20488;-49
2022/09/16 11:42:30;;;;;;;0.10;0.10;;;;;;;;;;4183088;28;20126;-47
2022/09/16 11:44:39;;;;;;;1.13;0.22;;;;;;;;;;4185483;28;20420;-49
2022/09/16 11:46:56;;;;;;;1.02;0.10;;;;;;;;;;4180323;28;20444;-49
2022/09/16 11:49:18;;;;;;;0.63;0.20;;;;;;;;;;4177183;28;20052;-49
2022/09/16 11:51:41;;;;;;;0.20;0.13;;;;;;;;;;4180367;28;20052;-48
2022/09/16 11:54:25;;;;;;;0.40;0.10;;;;;;;;;;4178825;28;20555;-46
2022/09/16 11:56:32;;;;;;;0.10;0.10;;;;;;;;;;4162761;28;20053;-47
2022/09/16 11:58:53;;;;;;;0.90;0.30;;;;;;;;;;4184017;28;20130;-47
2022/09/16 12:00:58;;;;;;;0.20;0.20;;;;;;;;;;4182732;28;20569;-49
2022/09/16 12:03:23;;;;;;;0.10;0.10;;;;;;;;;;4182324;28;20060;-51
2022/09/16 12:05:35;;;;;;;0.47;0.10;;;;;;;;;;4181676;28;20070;-47
2022/09/16 12:07:57;;;;;;;1.65;0.25;;;;;;;;;;4160731;28;20080;-46
2022/09/16 12:10:25;;;;;;;0.20;0.13;;;;;;;;;;4178196;28;20477;-50
2022/09/16 12:12:37;;;;;;;0.15;0.10;;;;;;;;;;4178380;28;20133;-47
2022/09/16 12:14:44;;;;;;;0.15;0.15;;;;;;;;;;4176687;28;20801;-49
2022/09/16 12:17:02;;;;;;;0.20;0.10;;;;;;;;;;4173409;28;20075;-52
2022/09/16 12:19:11;;;;;;;0.32;0.10;;;;;;;;;;4170340;28;20064;-48
2022/09/16 12:21:33;;;;;;;0.08;0.08;;;;;;;;;;4170856;28;20061;-48
2022/09/16 12:23:56;;;;;;;;;;;;;;;;;;4166265;28;20110;-49
2022/09/16 12:26:07;;;;;;;0.17;0.10;;;;;;;;;;4170342;28;19925;-51
2022/09/16 12:28:15;;;;;;;;;;;;;;;;;;4167918;28;20078;-50
2022/09/16 12:30:18;;;;;;;0.32;0.13;;;;;;;;;;4170093;28;20039;-47
2022/09/16 12:32:37;;;;;;;0.65;0.20;;;;;;;;;;4165768;28;20068;-49
2022/09/16 12:35:08;;;;;;;0.20;0.20;;;;;;;;;;4168417;28;20091;-49
2022/09/16 12:37:19;;;;;;;0.05;0.05;;;;;;;;;;4166655;28;20489;-52
2022/09/16 12:39:20;;;;;;;0.10;0.10;;;;;;;;;;4164729;28;20239;-47
2022/09/16 12:41:29;;;;;;;1.95;0.10;;;;;;;;;;4147037;28;20563;-51
2022/09/16 12:44:08;;;;;;;0.10;0.00;;;;;;;;;;4168334;28;20060;-51